createdAt,value
2022-09-19T00:00:03.529Z,0
2022-09-19T00:05:03.284Z,0
2022-09-19T00:10:02.957Z,0
2022-09-19T00:15:03.651Z,0
2022-09-19T00:20:03.016Z,0
2022-09-19T00:25:03.074Z,0
2022-09-19T00:30:03.177Z,0
2022-09-19T00:35:03.608Z,0
2022-09-19T00:40:03.216Z,0
2022-09-19T00:45:03.544Z,0
2022-09-19T00:50:03.234Z,0
2022-09-19T00:55:04.068Z,0
2022-09-19T01:00:02.652Z,0
2022-09-19T01:05:03.242Z,0
2022-09-19T01:10:02.925Z,0
2022-09-19T01:15:03.324Z,0
2022-09-19T01:20:03.180Z,0
2022-09-19T01:25:02.804Z,0
2022-09-19T01:30:03.456Z,0
2022-09-19T01:35:03.346Z,0
2022-09-19T01:40:03.100Z,0
2022-09-19T01:45:03.710Z,0
2022-09-19T01:50:03.499Z,0
2022-09-19T01:55:04.122Z,0
2022-09-19T02:00:03.055Z,0
2022-09-19T02:05:02.667Z,0
2022-09-19T02:10:03.327Z,0
2022-09-19T02:15:03.125Z,0
2022-09-19T02:20:02.763Z,0
2022-09-19T02:25:03.395Z,0
2022-09-19T02:30:03.050Z,0
2022-09-19T02:35:02.722Z,0
2022-09-19T02:40:02.727Z,0
2022-09-19T02:45:03.047Z,0
2022-09-19T02:50:02.832Z,0
2022-09-19T02:55:03.994Z,0
2022-09-19T03:00:03.223Z,0
2022-09-19T03:05:02.825Z,0
2022-09-19T03:10:02.735Z,0
2022-09-19T03:15:02.276Z,0
2022-09-19T03:20:02.900Z,0
2022-09-19T03:25:02.587Z,0
2022-09-19T03:30:02.241Z,0
2022-09-19T03:35:03.062Z,0
2022-09-19T03:40:02.738Z,0
2022-09-19T03:45:02.332Z,0
2022-09-19T03:50:03.089Z,0
2022-09-19T03:55:04.354Z,0
2022-09-19T04:00:02.455Z,0
2022-09-19T04:05:03.073Z,0
2022-09-19T04:10:02.731Z,0
2022-09-19T04:15:02.447Z,0.11
2022-09-19T04:20:03.093Z,0.57
2022-09-19T04:25:02.786Z,1.47
2022-09-19T04:30:03.116Z,3.4
2022-09-19T04:35:02.758Z,6
2022-09-19T04:40:03.625Z,5
2022-09-19T04:45:03.031Z,10
2022-09-19T04:50:05.538Z,30
2022-09-19T04:55:03.990Z,78.33
2022-09-19T05:00:02.374Z,108.33
2022-09-19T05:05:03.264Z,155
2022-09-19T05:10:02.938Z,141.67
2022-09-19T05:15:03.637Z,258.33
2022-09-19T05:20:03.354Z,398.33
2022-09-19T05:25:03.124Z,465
2022-09-19T05:30:02.860Z,473.33
2022-09-19T05:35:03.422Z,581.67
2022-09-19T05:40:03.334Z,350
2022-09-19T05:45:02.777Z,191.67
2022-09-19T05:50:03.455Z,193.33
2022-09-19T05:55:04.168Z,151.67
2022-09-19T06:00:02.855Z,255
2022-09-19T06:05:03.684Z,368.33
2022-09-19T06:10:03.180Z,493.33
2022-09-19T06:15:02.926Z,1085
2022-09-19T06:20:03.547Z,2328.33
2022-09-19T06:25:03.207Z,2503.33
2022-09-19T06:30:02.900Z,4315
2022-09-19T06:35:03.439Z,2126.67
2022-09-19T06:40:03.563Z,1250
2022-09-19T06:45:03.047Z,2021.67
2022-09-19T06:50:02.738Z,3191.67
2022-09-19T06:55:04.481Z,1381.67
2022-09-19T07:00:03.041Z,3206.67
2022-09-19T07:05:02.705Z,3800
2022-09-19T07:10:03.354Z,5848.33
2022-09-19T07:15:02.947Z,1198.33
2022-09-19T07:20:02.376Z,2461.67
2022-09-19T07:25:03.106Z,1908.33
2022-09-19T07:30:02.841Z,2406.67
2022-09-19T07:35:02.484Z,1175
2022-09-19T07:40:08.955Z,2640
2022-09-19T07:45:05.524Z,1793.33
2022-09-19T07:50:02.327Z,2020
2022-09-19T07:55:04.447Z,2556.67
2022-09-19T08:00:02.653Z,1983.33
2022-09-19T08:05:02.312Z,1703.33
2022-09-19T08:10:02.951Z,1990
2022-09-19T08:15:02.679Z,1891.67
2022-09-19T08:20:02.576Z,1861.67
2022-09-19T08:25:02.997Z,1493.33
2022-09-19T08:30:02.742Z,1896.67
2022-09-19T08:35:02.430Z,1606.67
2022-09-19T08:40:03.193Z,1626.67
2022-09-19T08:45:02.813Z,3253.33
2022-09-19T08:50:02.846Z,3470
2022-09-19T08:55:04.646Z,5071.67
2022-09-19T09:00:03.248Z,4710
2022-09-19T09:05:02.894Z,9118.33
2022-09-19T09:10:03.632Z,4630
2022-09-19T09:15:50.819Z,11080
2022-09-19T09:20:02.309Z,28830
2022-09-19T09:25:02.922Z,10250
2022-09-19T09:30:02.625Z,10018.33
2022-09-19T09:35:02.224Z,8423.33
2022-09-19T09:40:03.206Z,7198.33
2022-09-19T09:45:03.045Z,8898.33
2022-09-19T09:50:02.713Z,8355
2022-09-19T09:55:04.386Z,8778.33
2022-09-19T10:00:03.078Z,10480
2022-09-19T10:05:02.702Z,8981.67
2022-09-19T10:10:03.363Z,12698.33
2022-09-19T10:15:08.720Z,13640
2022-09-19T10:20:03.424Z,59447.81
2022-09-19T10:25:03.130Z,67853.59
2022-09-19T10:30:02.769Z,12520
2022-09-19T10:35:03.410Z,12428.33
2022-09-19T10:40:03.708Z,34006.67
2022-09-19T10:45:02.753Z,31413.33
2022-09-19T10:50:03.421Z,46433.33
2022-09-19T10:55:07.852Z,48303.33
2022-09-19T11:00:02.762Z,64707.27
2022-09-19T11:05:03.546Z,49433.33
2022-09-19T11:10:03.109Z,30810
2022-09-19T11:15:02.781Z,45976.67
2022-09-19T11:20:03.423Z,10221.67
2022-09-19T11:25:03.118Z,6886.67
2022-09-19T11:30:02.356Z,48413.33
2022-09-19T11:35:27.981Z,7463.33
2022-09-19T11:40:03.197Z,43476.67
2022-09-19T11:45:04.856Z,58164.84
2022-09-19T11:50:03.220Z,7470
2022-09-19T11:55:03.579Z,45803.33
2022-09-19T12:00:03.555Z,43240
2022-09-19T12:05:02.877Z,40366.67
2022-09-19T12:10:02.935Z,38753.33
2022-09-19T12:15:03.563Z,4343.33
2022-09-19T12:20:03.276Z,46840
2022-09-19T12:25:02.968Z,48470
2022-09-19T12:30:03.670Z,44360
2022-09-19T12:35:03.279Z,2776.67
2022-09-19T12:40:03.309Z,3748.33
2022-09-19T12:45:03.624Z,33393.33
2022-09-19T12:50:03.712Z,2826.67
2022-09-19T12:55:03.724Z,4605
2022-09-19T13:00:02.775Z,38643.33
2022-09-19T13:05:03.327Z,38610
2022-09-19T13:10:03.702Z,5775
2022-09-19T13:15:02.897Z,31950
2022-09-19T13:20:03.854Z,5571.67
2022-09-19T13:25:03.425Z,28563.33
2022-09-19T13:30:03.397Z,11063.33
2022-09-19T13:35:02.558Z,11051.67
2022-09-19T13:40:04.128Z,11485
2022-09-19T13:45:03.291Z,12335
2022-09-19T13:50:02.705Z,12350
2022-09-19T13:55:04.343Z,3501.67
2022-09-19T14:00:03.070Z,10808.33
2022-09-19T14:05:02.775Z,1916.67
2022-09-19T14:10:06.227Z,1850
2022-09-19T14:15:02.600Z,2031.67
2022-09-19T14:20:02.309Z,2316.67
2022-09-19T14:25:03.077Z,2900
2022-09-19T14:30:03.021Z,4146.67
2022-09-19T14:35:02.686Z,9078.33
2022-09-19T14:40:03.686Z,10121.67
2022-09-19T14:45:04.902Z,9855
2022-09-19T14:50:03.551Z,9568.33
2022-09-19T14:55:04.088Z,6321.67
2022-09-19T15:00:03.113Z,8085
2022-09-19T15:05:02.761Z,3190
2022-09-19T15:10:03.440Z,1796.67
2022-09-19T15:15:03.195Z,3141.67
2022-09-19T15:20:02.918Z,2571.67
2022-09-19T15:25:03.552Z,2285
2022-09-19T15:30:03.269Z,1736.67
2022-09-19T15:35:03.069Z,1291.67
2022-09-19T15:40:03.089Z,1250
2022-09-19T15:45:03.436Z,956.67
2022-09-19T15:50:03.038Z,968.33
2022-09-19T15:55:03.779Z,908.33
2022-09-19T16:00:03.388Z,1065
2022-09-19T16:05:03.027Z,1181.67
2022-09-19T16:10:02.663Z,1285
2022-09-19T16:15:03.324Z,1335
2022-09-19T16:20:03.309Z,835
2022-09-19T16:25:02.755Z,970
2022-09-19T16:30:03.498Z,1188.33
2022-09-19T16:35:03.431Z,1260
2022-09-19T16:40:03.146Z,1270
2022-09-19T16:45:03.487Z,360
2022-09-19T16:50:02.815Z,221.67
2022-09-19T16:55:04.122Z,290
2022-09-19T17:00:03.367Z,213.33
2022-09-19T17:05:03.045Z,150
2022-09-19T17:10:02.842Z,91.67
2022-09-19T17:15:03.344Z,70
2022-09-19T17:20:02.957Z,61.67
2022-09-19T17:25:02.268Z,36.67
2022-09-19T17:30:03.357Z,18.33
2022-09-19T17:35:02.527Z,6.67
2022-09-19T17:40:03.122Z,7.02
2022-09-19T17:45:03.439Z,2.83
2022-09-19T17:50:03.214Z,1.02
2022-09-19T17:55:04.157Z,0.34
2022-09-19T18:00:03.479Z,0
2022-09-19T18:05:02.645Z,0
2022-09-19T18:10:02.415Z,0
2022-09-19T18:15:03.045Z,0
2022-09-19T18:20:03.034Z,0
2022-09-19T18:25:02.652Z,0
2022-09-19T18:30:02.375Z,0
2022-09-19T18:35:02.945Z,0
2022-09-19T18:40:02.631Z,0
2022-09-19T18:45:03.120Z,0
2022-09-19T18:50:02.706Z,0
2022-09-19T18:55:03.833Z,0
2022-09-19T19:00:03.077Z,0
2022-09-19T19:05:02.868Z,0
2022-09-19T19:10:02.892Z,0
2022-09-19T19:15:03.543Z,0
2022-09-19T19:20:03.234Z,0
2022-09-19T19:25:02.837Z,0
2022-09-19T19:30:03.606Z,0
2022-09-19T19:35:03.176Z,0
2022-09-19T19:40:03.246Z,0
2022-09-19T19:45:03.576Z,0
2022-09-19T19:50:03.295Z,0
2022-09-19T19:55:04.063Z,0
2022-09-19T20:00:02.767Z,0
2022-09-19T20:05:05.430Z,0
2022-09-19T20:10:03.172Z,0
2022-09-19T20:15:02.809Z,0
2022-09-19T20:20:03.577Z,0
2022-09-19T20:25:03.474Z,0
2022-09-19T20:30:03.284Z,0
2022-09-19T20:35:02.882Z,0
2022-09-19T20:40:03.042Z,0
2022-09-19T20:45:03.332Z,0
2022-09-19T20:50:02.982Z,0
2022-09-19T20:55:04.777Z,0
2022-09-19T21:00:02.978Z,0
2022-09-19T21:05:02.999Z,0
2022-09-19T21:10:02.625Z,0
2022-09-19T21:15:03.331Z,0
2022-09-19T21:20:02.943Z,0
2022-09-19T21:25:02.850Z,0
2022-09-19T21:30:02.323Z,0
2022-09-19T21:35:02.910Z,0
2022-09-19T21:40:02.569Z,0
2022-09-19T21:45:03.213Z,0
2022-09-19T21:50:02.878Z,0
2022-09-19T21:55:03.782Z,0
2022-09-19T22:00:03.111Z,0
2022-09-19T22:05:02.714Z,0
2022-09-19T22:10:02.502Z,0
2022-09-19T22:15:02.613Z,0
2022-09-19T22:20:04.420Z,0
2022-09-19T22:25:03.020Z,0
2022-09-19T22:30:02.707Z,0
2022-09-19T22:35:02.409Z,0
2022-09-19T22:40:03.131Z,0
2022-09-19T22:45:02.945Z,0
2022-09-19T22:50:02.536Z,0
2022-09-19T22:55:04.732Z,0
2022-09-19T23:00:02.934Z,0
2022-09-19T23:05:02.572Z,0
2022-09-19T23:10:02.209Z,0
2022-09-19T23:15:02.995Z,0
2022-09-19T23:20:02.880Z,0
2022-09-19T23:25:02.544Z,0
2022-09-19T23:30:03.242Z,0
2022-09-19T23:35:02.843Z,0
2022-09-19T23:40:02.546Z,0
2022-09-19T23:45:02.731Z,0
2022-09-19T23:50:03.171Z,0
2022-09-19T23:55:03.948Z,0
